• Join FlightAware (Why Join?)
  • Login
  • US Flag 
07:11PM EDT


 

Airport Tracker/Info


-or-


 

Live Flight TrackerFlight Track Log ✈ TRS587 ✈ 24-Aug-2013 ✈ KMCO - KMDW

Flight Track Log - Related Links

Times and Time Zones

All times are in EDT time to prevent confusion due to time zone crossing. See the TRS587 flight status page for this flight to view local times or setup timezone preferences in your user account.

Time Position Orientation Groundspeed Altitude Reporting Facility
EDT Latitude Longitude Course Direction KTS MPH feet Rate Location/Type
10:34AM 28.4000 -81.3000 204° Southwest 188 216 600  Level Orlando TRACON
10:35AM 28.3667 -81.3167 204° Southwest 205 236 1,800 1,560 Climbing Orlando TRACON
10:36AM 28.3167 -81.3500 210° Southwest 259 298 3,200 1,800 Climbing Orlando TRACON
10:37AM 28.3000 -81.4333 257° West 281 323 5,400 2,160 Climbing Orlando TRACON
10:38AM 28.3142 -81.5606 277° West 286 329 8,900 1,920 Climbing Jacksonville Center
10:39AM 28.3297 -81.6497 281° West 286 329 10,300 1,380 Climbing Jacksonville Center
10:40AM 28.3494 -81.7511 282° West 304 350 11,700 1,560 Climbing Jacksonville Center
10:41AM 28.3669 -81.8500 281° West 320 368 13,500 1,800 Climbing Jacksonville Center
10:42AM 28.3886 -81.9558 283° West 334 384 15,300 1,680 Climbing Jacksonville Center
10:43AM 28.4103 -82.0594 283° West 339 390 16,900 1,440 Climbing Jacksonville Center
10:44AM 28.4297 -82.1703 281° West 344 396 18,200 1,380 Climbing Jacksonville Center
10:45AM 28.4531 -82.2786 284° West 355 409 19,700 1,320 Climbing Jacksonville Center
10:46AM 28.4725 -82.3942 281° West 355 409 20,900 1,200 Climbing Jacksonville Center
10:47AM 28.5042 -82.5050 288° West 365 420 22,200 1,260 Climbing Jacksonville Center
10:48AM 28.5961 -82.5639 331° Northwest 347 399 23,500 1,200 Climbing Jacksonville Center
10:49AM 28.6922 -82.6108 337° Northwest 364 419 24,700 1,140 Climbing Jacksonville Center
10:50AM 28.7944 -82.6581 338° Northwest 369 425 25,800 900 Climbing Jacksonville Center
10:51AM 28.8989 -82.7100 336° Northwest 384 442 26,600 900 Climbing Jacksonville Center
10:52AM 29.0056 -82.7619 337° Northwest 402 463 27,600 900 Climbing Jacksonville Center
10:53AM 29.1100 -82.8117 337° Northwest 402 463 28,400 780 Climbing Jacksonville Center
10:54AM 29.2186 -82.8639 337° Northwest 407 468 29,200 840 Climbing Jacksonville Center
10:55AM 29.3250 -82.9164 337° Northwest 412 474 30,100 720 Climbing Jacksonville Center
10:56AM 29.4336 -82.9689 337° Northwest 412 474 30,700 720 Climbing Jacksonville Center
10:57AM 29.5358 -83.0214 336° Northwest 421 484 31,600 600 Climbing Jacksonville Center
10:58AM 29.6422 -83.0717 338° Northwest 426 490 32,000 180 Climbing Jacksonville Center
10:59AM 29.7547 -83.1247 338° Northwest 426 490 32,000  Level Jacksonville Center
11:00AM 29.8653 -83.1753 338° Northwest 426 490 32,000  Level Jacksonville Center
11:01AM 29.9758 -83.2258 338° Northwest 426 490 32,000  Level Jacksonville Center
11:02AM 30.0886 -83.2767 339° North 431 496 32,000  Level Jacksonville Center
11:03AM 30.1969 -83.3275 338° Northwest 431 496 32,000  Level Jacksonville Center
11:04AM 30.3072 -83.3811 337° Northwest 431 496 32,000  Level Jacksonville Center
11:05AM 30.4178 -83.4322 338° Northwest 431 496 32,000  Level Jacksonville Center
11:06AM 30.5303 -83.4833 339° North 431 496 32,000  Level Jacksonville Center
11:07AM 30.6408 -83.5347 338° Northwest 431 496 32,000  Level Jacksonville Center
11:08AM 30.7572 -83.5911 337° Northwest 424 488 32,000  Level Jacksonville Center
11:09AM 30.8656 -83.6453 337° Northwest 424 488 32,000  Level Jacksonville Center
11:10AM 30.9739 -83.6969 338° Northwest 419 482 32,000  Level Jacksonville Center
11:11AM 31.0842 -83.7489 338° Northwest 414 476 32,000  Level Jacksonville Center
11:13AM 31.3083 -83.8592 337° Northwest 433 498 32,000  Level Atlanta Center
11:14AM 31.4167 -83.9100 338° Northwest 433 498 32,000  Level Atlanta Center
11:15AM 31.5275 -83.9633 338° Northwest 428 493 32,000  Level Atlanta Center
11:16AM 31.6464 -83.9900 349° North 428 493 32,000  Level Atlanta Center
11:17AM 31.7633 -84.0144 350° North 428 493 32,000  Level Atlanta Center
11:18AM 31.8822 -84.0389 350° North 428 493 32,000  Level Atlanta Center
11:19AM 31.9867 -84.0633 349° North 428 493 32,000  Level Atlanta Center
11:20AM 32.1056 -84.0878 350° North 428 493 32,000  Level Atlanta Center
11:21AM 32.2244 -84.1150 349° North 428 493 32,000  Level Atlanta Center
11:22AM 32.3414 -84.1422 349° North 428 493 32,000  Level Atlanta Center
11:23AM 32.4603 -84.1717 348° North 428 493 32,000  Level Atlanta Center
11:24AM 32.5772 -84.1967 350° North 428 493 32,000  Level Atlanta Center
11:25AM 32.6942 -84.2239 349° North 428 493 32,000  Level Atlanta Center
11:26AM 32.8233 -84.2514 350° North 428 493 32,000  Level Atlanta Center
11:27AM 32.9425 -84.2789 349° North 428 493 32,000  Level Atlanta Center
11:28AM 33.0467 -84.3039 349° North 428 493 32,000  Level Atlanta Center
11:29AM 33.1594 -84.3292 349° North 423 487 32,000  Level Atlanta Center
11:30AM 33.2761 -84.3569 349° North 423 487 32,000  Level Atlanta Center
11:31AM 33.3889 -84.3822 349° North 417 480 32,000  Level Atlanta Center
11:32AM 33.5036 -84.4100 349° North 417 480 32,000  Level Atlanta Center
11:33AM 33.6161 -84.4378 348° North 419 482 32,000  Level Atlanta Center
11:34AM 33.7350 -84.4633 350° North 419 482 32,000  Level Atlanta Center
11:35AM 33.8561 -84.4917 349° North 414 476 32,000  Level Atlanta Center
11:36AM 33.9686 -84.5172 349° North 414 476 32,000  Level Atlanta Center
11:37AM 34.0917 -84.5506 347° North 414 476 32,000  Level Atlanta Center
11:38AM 34.2000 -84.5739 350° North 427 491 32,000  Level Atlanta Center
11:39AM 34.3147 -84.6022 348° North 427 491 32,000  Level Atlanta Center
11:40AM 34.4314 -84.6306 349° North 427 491 32,000  Level Atlanta Center
11:41AM 34.5442 -84.6567 349° North 422 486 32,000  Level Atlanta Center
11:42AM 34.6669 -84.6903 347° North 417 480 32,000  Level Atlanta Center
11:43AM 34.7817 -84.7192 348° North 409 471 32,000  Level Atlanta Center
11:44AM 34.8964 -84.7478 348° North 409 471 32,000  Level Atlanta Center
11:45AM 35.0089 -84.7767 348° North 414 476 32,000  Level Atlanta Center
11:46AM 35.1256 -84.8056 349° North 414 476 32,000  Level Atlanta Center
11:47AM 35.2381 -84.8347 348° North 414 476 32,000  Level Atlanta Center
11:48AM 35.3297 -84.8586 348° North 414 476 32,000  Level Atlanta Center
11:49AM 35.4650 -84.8903 349° North 414 476 32,000  Level Atlanta Center
11:50AM 35.5775 -84.9197 348° North 414 476 32,000  Level Atlanta Center
11:51AM 35.6919 -84.9492 348° North 408 470 32,000  Level Atlanta Center
11:52AM 35.7794 -84.9731 348° North 413 475 32,000  Level Atlanta Center
11:53AM 35.9106 -85.0078 348° North 420 483 32,000  Level Atlanta Center
11:55AM 36.0883 -85.0469 350° North 413 475 32,000  Level Indianapolis Center
11:56AM 36.1994 -85.0761 348° North 409 471 32,000  Level Indianapolis Center
11:57AM 36.3108 -85.1042 349° North 406 467 32,000  Level Indianapolis Center
11:58AM 36.4211 -85.1325 348° North 405 466 32,000  Level Indianapolis Center
11:59AM 36.5300 -85.1608 348° North 401 461 32,000  Level Indianapolis Center
12:00PM 36.6406 -85.1886 349° North 402 463 32,000  Level Indianapolis Center
12:01PM 36.7469 -85.2289 343° North 405 466 32,000  Level Indianapolis Center
12:02PM 36.8508 -85.2814 338° Northwest 404 465 32,000  Level Indianapolis Center
12:03PM 36.9772 -85.3453 338° Northwest 409 471 32,000  Level Indianapolis Center
12:04PM 37.0850 -85.3803 345° North 413 475 32,000  Level Indianapolis Center
12:05PM 37.1961 -85.4028 351° North 409 471 32,000  Level Indianapolis Center
12:06PM 37.3094 -85.4253 351° North 409 471 32,000  Level Indianapolis Center
12:07PM 37.4225 -85.4481 351° North 410 472 32,000  Level Indianapolis Center
12:08PM 37.5361 -85.4692 352° North 412 474 32,000  Level Indianapolis Center
12:09PM 37.6475 -85.4914 351° North 405 466 32,000  Level Indianapolis Center
12:11PM 37.7971 -85.5169 352° North  Level FlightAware Approximate
12:11PM 37.8814 -85.5342 352° North 416 479 32,000  Level Indianapolis Center
12:12PM 37.9950 -85.5558 351° North 413 475 32,000  Level Indianapolis Center
12:13PM 38.1317 -85.5825 351° North 413 475 32,000  Level Indianapolis Center
12:14PM 38.2456 -85.6031 352° North 413 475 32,000  Level Indianapolis Center
12:15PM 38.3575 -85.6256 351° North 409 471 32,000  Level Indianapolis Center
12:16PM 38.4703 -85.6483 351° North 409 471 32,000  Level Indianapolis Center
12:17PM 38.5825 -85.6703 351° North 408 470 32,000 -180 Level Indianapolis Center
12:18PM 38.7058 -85.6939 352° North 407 468 31,700 -660 Descending Indianapolis Center
12:19PM 38.8169 -85.7158 351° North 406 467 30,700 -840 Descending Indianapolis Center
12:20PM 38.9300 -85.7375 352° North 410 472 30,000 -360 Descending Indianapolis Center
12:21PM 39.0419 -85.7594 351° North 409 471 30,000  Level Indianapolis Center
12:22PM 39.1539 -85.7811 351° North 408 470 30,000  Level Indianapolis Center
12:23PM 39.2661 -85.8033 351° North 409 471 30,000  Level Indianapolis Center
12:24PM 39.3769 -85.8253 351° North 407 468 30,000 -540 Level Indianapolis Center
12:26PM 39.5100 -85.8517 351° North 407 468 29,000 -1,080 Descending Indianapolis Center
12:27PM 39.6175 -85.8731 351° North 399 459 27,800 -1,200 Descending Indianapolis Center
12:28PM 39.7244 -85.8942 351° North 394 453 26,600 -1,200 Descending Indianapolis Center
12:29PM 39.8311 -85.9156 351° North 393 452 25,400 -1,200 Descending Indianapolis Center
12:30PM 39.9358 -85.9369 351° North 389 448 24,200 -720 Descending Indianapolis Center
12:31PM 40.0353 -85.9650 348° North 377 434 24,000 -120 Descending Indianapolis Center
12:32PM 40.1522 -86.0200 340° North 376 433 24,000 -180 Level Indianapolis Center
12:33PM 40.2500 -86.0642 341° North 375 432 23,700 -540 Descending Indianapolis Center
12:34PM 40.3461 -86.1092 340° North 372 428 22,900 -780 Descending Indianapolis Center
12:35PM 40.4411 -86.1525 341° North 366 421 22,200 -720 Descending Indianapolis Center
12:36PM 40.5358 -86.1947 341° North 362 417 21,400 -1,080 Descending Chicago Center
12:37PM 40.6475 -86.2461 341° North 358 412 20,000 -1,560 Descending Chicago Center
12:38PM 40.7278 -86.2839 340° North 352 405 18,200 -1,440 Descending Chicago Center
12:39PM 40.8083 -86.3464 330° Northwest 338 389 17,100 -1,020 Descending Chicago Center
12:40PM 40.9031 -86.4264 327° Northwest 337 388 16,100 -780 Descending Chicago Center
12:41PM 40.9831 -86.4950 327° Northwest 340 391 15,500 -720 Descending Chicago Center
12:42PM 41.0606 -86.5633 326° Northwest 336 387 14,700 -780 Descending Chicago Center
12:43PM 41.1358 -86.6325 325° Northwest 331 381 14,000 -780 Descending Chicago Center
12:44PM 41.1975 -86.7178 314° West 323 372 13,200 -1,020 Descending Chicago Center
12:45PM 41.2694 -86.8183 314° West 318 366 12,000 -1,080 Descending Chicago Center
12:46PM 41.3275 -86.8972 314° West 307 353 11,100 -960 Descending Chicago Center
12:47PM 41.3822 -86.9742 313° West 296 341 10,100 -1,260 Descending Chicago Center
12:48PM 41.4358 -87.0478 314° West 282 325 8,500 -1,680 Descending Chicago Center
12:49PM 41.4883 -87.1214 314° West 278 320 6,700 -1,440 Descending Chicago Center
12:50PM 41.5364 -87.2225 302° West 271 312 5,600 -1,320 Descending Chicago Center
12:51PM 41.5767 -87.3072 302° West 272 313 4,000 -960 Descending Chicago Center
12:52PM 41.6161 -87.3908 302° West 269 310 3,700 -540 Descending Chicago Center
12:53PM 41.6561 -87.4747 303° West 270 311 3,000 -540 Descending Chicago Center
12:54PM 41.6950 -87.5600 301° West 270 311 2,700 -480 Descending Chicago Center
12:56PM 41.7667 -87.6833 308° West 192 221 1,800 -600 Descending Chicago TRACON
12:57PM 41.8000 -87.7167 323° Northwest 160 184 1,100 -720 Descending Chicago TRACON
12:59PM 41.7833 -87.7500 14° North  Level FlightAware Approximate
01:06PM 41.7860 -87.7524 14° North  Level Estimated